Time;durP1;ratioP1;P1;durP2;ratioP2;P2;SDS_P1;SDS_P2;PMS_P1;PMS_P2;Temp;Humidity;BMP_temperature;BMP_pressure;BME280_temperature;BME280_humidity;BME280_pressure;Samples;Min_cycle;Max_cycle;Signal;HPM_P1;HPM_P2
2023/09/21 00:01:02;;;;;;;;;;;16.90;97.00;;;;;;4906266;29;19907;-77
2023/09/21 00:03:30;;;;;;;;;;;16.80;97.20;;;;;;4906270;29;19986;-77
2023/09/21 00:05:56;;;;;;;;;;;16.80;97.60;;;;;;4916731;29;19915;-76
2023/09/21 00:08:28;;;;;;;;;;;16.80;98.10;;;;;;4916604;29;19915;-77
2023/09/21 00:10:58;;;;;;;;;;;16.70;98.00;;;;;;4913684;29;19907;-78
2023/09/21 00:13:27;;;;;;;;;;;16.70;98.30;;;;;;4920304;29;20186;-78
2023/09/21 00:15:53;;;;;;;;;;;16.70;98.50;;;;;;4909910;29;19915;-77
2023/09/21 00:18:21;;;;;;;;;;;16.70;98.40;;;;;;4910284;29;20101;-78
2023/09/21 00:20:52;;;;;;;;;;;16.60;98.70;;;;;;4920958;29;19934;-77
2023/09/21 00:23:20;;;;;;;;;;;16.70;98.70;;;;;;4919396;29;20112;-76
2023/09/21 00:25:47;;;;;;;;;;;16.60;98.80;;;;;;4915411;29;19934;-77
2023/09/21 00:28:14;;;;;;;;;;;16.70;99.20;;;;;;4920733;29;19922;-77
2023/09/21 04:47:18;;;;;;;;;;;16.80;99.90;;;;;;5412475;23;19919;-77
2023/09/21 04:49:45;;;;;;;;;;;16.80;99.90;;;;;;4905453;29;19931;-78
2023/09/21 04:52:11;;;;;;;;;;;16.70;99.90;;;;;;4914432;29;19907;-77
2023/09/21 04:54:38;;;;;;;;;;;16.70;99.90;;;;;;4940779;29;19959;-77
2023/09/21 04:57:04;;;;;;;;;;;16.70;99.90;;;;;;4941828;29;19917;-76
2023/09/21 04:59:30;;;;;;;;;;;16.70;99.90;;;;;;4918109;29;19938;-78
2023/09/21 05:01:56;;;;;;;;;;;16.70;99.90;;;;;;4911521;29;19915;-75
2023/09/21 05:04:21;;;;;;;;;;;16.70;99.90;;;;;;4940444;29;19916;-77
2023/09/21 05:06:47;;;;;;;;;;;16.70;99.90;;;;;;4921441;29;19915;-75
2023/09/21 05:09:14;;;;;;;;;;;16.80;99.90;;;;;;4946064;29;19958;-78
2023/09/21 05:11:40;;;;;;;;;;;16.80;99.90;;;;;;4917422;29;20242;-78
2023/09/21 05:14:06;;;;;;;;;;;16.70;99.90;;;;;;4918208;29;19911;-78
2023/09/21 05:16:34;;;;;;;;;;;16.70;99.90;;;;;;4923425;29;19974;-78
2023/09/21 05:19:00;;;;;;;;;;;16.80;99.90;;;;;;4931561;29;19926;-78
2023/09/21 05:21:26;;;;;;;;;;;16.80;99.90;;;;;;4941305;29;19906;-76
2023/09/21 05:23:51;;;;;;;;;;;16.90;99.90;;;;;;4934185;29;20239;-78
2023/09/21 05:26:17;;;;;;;;;;;16.90;99.90;;;;;;4940046;29;19910;-76
2023/09/21 05:28:44;;;;;;;;;;;17.00;99.90;;;;;;4923743;29;19914;-77
2023/09/21 05:31:09;;;;;;;;;;;17.00;99.90;;;;;;4935146;29;19911;-78
2023/09/21 05:33:35;;;;;;;;;;;17.00;99.90;;;;;;4938827;29;19925;-78
2023/09/21 05:36:04;;;;;;;;;;;17.10;99.90;;;;;;4941670;29;19915;-78
2023/09/21 05:38:32;;;;;;;;;;;17.10;99.90;;;;;;4948608;29;19907;-78
2023/09/21 05:41:02;;;;;;;;;;;17.10;99.90;;;;;;4955865;29;19911;-78
2023/09/21 05:43:29;;;;;;;;;;;17.20;99.90;;;;;;4935782;29;19949;-78
2023/09/21 05:45:54;;;;;;;;;;;17.20;99.90;;;;;;4943783;29;19915;-78
2023/09/21 05:48:20;;;;;;;;;;;17.30;99.90;;;;;;4928610;29;19917;-79
2023/09/21 05:50:46;;;;;;;;;;;17.30;99.90;;;;;;4934392;29;19919;-80
2023/09/21 05:53:12;;;;;;;;;;;17.40;99.90;;;;;;4929397;29;19937;-76
2023/09/21 05:55:37;;;;;;;;;;;17.50;99.90;;;;;;4925134;29;19950;-77
2023/09/21 05:58:04;;;;;;;;;;;17.50;99.90;;;;;;4936984;29;19914;-76
2023/09/21 06:00:33;;;;;;;;;;;17.60;99.90;;;;;;4930031;29;20091;-79
2023/09/21 06:03:02;;;;;;;;;;;17.60;99.90;;;;;;4920827;29;19941;-78
2023/09/21 06:05:29;;;;;;;;;;;17.70;99.90;;;;;;4901283;29;19915;-78
2023/09/21 06:07:55;;;;;;;;;;;17.70;99.90;;;;;;4916562;29;19944;-76
2023/09/21 06:10:21;;;;;;;;;;;17.70;99.90;;;;;;4941431;29;19978;-76
2023/09/21 06:12:47;;;;;;;;;;;17.80;99.90;;;;;;4916443;29;20268;-76
2023/09/21 06:15:16;;;;;;;;;;;17.80;99.90;;;;;;4939372;29;19903;-77
2023/09/21 06:17:42;;;;;;;;;;;17.90;99.90;;;;;;4941536;29;19913;-76
2023/09/21 06:20:07;;;;;;;;;;;17.80;99.90;;;;;;4939389;29;20939;-77
2023/09/21 06:22:33;;;;;;;;;;;17.90;99.90;;;;;;4938520;29;19907;-79
2023/09/21 06:24:59;;;;;;;;;;;17.90;99.90;;;;;;4937910;29;19918;-78
2023/09/21 06:27:25;;;;;;;;;;;18.00;99.90;;;;;;4944924;29;19982;-78
2023/09/21 06:29:51;;;;;;;;;;;18.00;99.70;;;;;;4940972;29;19938;-77
2023/09/21 06:32:18;;;;;;;;;;;17.90;99.80;;;;;;4940742;29;19990;-78
2023/09/21 06:34:45;;;;;;;;;;;17.90;99.90;;;;;;4916428;29;20201;-77
2023/09/21 06:37:13;;;;;;;;;;;18.00;99.90;;;;;;4942810;29;19915;-77
2023/09/21 06:39:39;;;;;;;;;;;18.10;99.70;;;;;;4937719;29;19946;-78
2023/09/21 06:42:05;;;;;;;;;;;18.20;99.50;;;;;;4936836;29;19941;-78
2023/09/21 06:44:31;;;;;;;;;;;18.30;99.20;;;;;;4917615;29;19911;-76
2023/09/21 06:46:57;;;;;;;;;;;18.30;98.90;;;;;;4934452;29;19915;-78
2023/09/21 06:49:23;;;;;;;;;;;18.40;98.40;;;;;;4933612;29;20190;-78
2023/09/21 06:51:49;;;;;;;;;;;18.50;98.20;;;;;;4936591;29;20215;-77
2023/09/21 06:54:15;;;;;;;;;;;18.50;97.90;;;;;;4938448;29;19962;-78
2023/09/21 06:56:40;;;;;;;;;;;18.50;97.80;;;;;;4935234;29;19953;-77
2023/09/21 06:59:06;;;;;;;;;;;18.60;97.70;;;;;;4945224;29;19910;-77
2023/09/21 07:01:35;;;;;;;;;;;18.70;97.80;;;;;;4936272;29;19906;-77
2023/09/21 07:04:00;;;;;;;;;;;18.90;97.60;;;;;;4925745;29;19915;-77
2023/09/21 07:06:26;;;;;;;;;;;19.00;97.40;;;;;;4917552;29;19910;-77
2023/09/21 07:08:52;;;;;;;;;;;19.10;97.10;;;;;;4922697;29;19907;-77
2023/09/21 07:11:20;;;;;;;;;;;19.30;97.00;;;;;;4936890;29;19963;-77
2023/09/21 07:13:47;;;;;;;;;;;19.30;96.50;;;;;;4955554;29;19910;-78
2023/09/21 07:16:13;;;;;;;;;;;19.30;96.30;;;;;;4921932;29;19922;-77
2023/09/21 07:18:42;;;;;;;;;;;19.40;96.20;;;;;;4938492;29;19954;-77
2023/09/21 07:21:08;;;;;;;;;;;19.60;95.90;;;;;;4925070;29;19902;-75
2023/09/21 07:23:34;;;;;;;;;;;19.80;95.40;;;;;;4944003;29;19946;-75
2023/09/21 07:26:00;;;;;;;;;;;20.00;94.90;;;;;;4912058;29;19913;-76
2023/09/21 07:28:28;;;;;;;;;;;20.10;94.40;;;;;;4906357;29;19911;-77
2023/09/21 07:30:54;;;;;;;;;;;20.30;94.30;;;;;;4908840;29;20112;-78
2023/09/21 07:33:23;;;;;;;;;;;20.40;93.80;;;;;;4922939;29;19907;-77
2023/09/21 07:35:50;;;;;;;;;;;20.30;93.60;;;;;;4923864;29;19978;-77
2023/09/21 07:38:16;;;;;;;;;;;20.50;93.50;;;;;;4942728;29;19907;-76
2023/09/21 07:40:41;;;;;;;;;;;20.40;93.40;;;;;;4942138;29;19906;-77
2023/09/21 07:43:07;;;;;;;;;;;20.40;93.50;;;;;;4919459;29;19918;-76
2023/09/21 07:45:33;;;;;;;;;;;20.50;93.60;;;;;;4919102;29;19911;-76
2023/09/21 07:47:59;;;;;;;;;;;20.30;93.50;;;;;;4932018;29;19971;-76
2023/09/21 07:50:25;;;;;;;;;;;20.40;93.80;;;;;;4914634;29;19910;-77
2023/09/21 07:52:56;;;;;;;;;;;20.60;93.50;;;;;;4947227;29;20188;-76
2023/09/21 07:55:24;;;;;;;;;;;20.70;93.20;;;;;;4941757;29;20101;-78
2023/09/21 07:57:50;;;;;;;;;;;20.90;92.90;;;;;;4935452;29;19909;-78
2023/09/21 08:00:17;;;;;;;;;;;21.10;92.50;;;;;;4909815;29;19907;-77
2023/09/21 08:02:43;;;;;;;;;;;21.30;92.30;;;;;;4921282;29;19921;-76
2023/09/21 08:05:09;;;;;;;;;;;21.40;92.10;;;;;;4900937;29;20121;-78
2023/09/21 08:07:36;;;;;;;;;;;21.40;92.00;;;;;;4903311;29;19910;-78
2023/09/21 08:10:04;;;;;;;;;;;21.50;92.10;;;;;;4915464;29;19926;-77
2023/09/21 08:12:30;;;;;;;;;;;21.40;91.90;;;;;;4931266;29;20204;-78
2023/09/21 08:14:57;;;;;;;;;;;21.40;91.90;;;;;;4916292;29;19906;-78
2023/09/21 08:17:23;;;;;;;;;;;21.70;91.80;;;;;;4924656;29;19931;-78
2023/09/21 08:19:48;;;;;;;;;;;21.80;91.40;;;;;;4903598;29;19903;-76
2023/09/21 08:22:14;;;;;;;;;;;22.20;91.00;;;;;;4939155;29;19913;-77
2023/09/21 08:24:41;;;;;;;;;;;22.50;90.70;;;;;;4914175;29;19911;-77
2023/09/21 08:27:10;;;;;;;;;;;22.80;90.00;;;;;;4945700;29;20184;-77
2023/09/21 08:29:35;;;;;;;;;;;23.00;89.20;;;;;;4916927;29;20180;-76
2023/09/21 08:32:02;;;;;;;;;;;23.20;88.40;;;;;;4923623;29;19978;-78
2023/09/21 08:34:28;;;;;;;;;;;23.40;87.70;;;;;;4930934;29;19903;-76
2023/09/21 08:36:53;;;;;;;;;;;23.50;87.20;;;;;;4915716;29;19938;-77
2023/09/21 08:39:19;;;;;;;;;;;23.60;86.90;;;;;;4939894;29;19914;-77
2023/09/21 08:41:49;;;;;;;;;;;23.60;86.70;;;;;;4904097;29;19907;-77
2023/09/21 08:44:16;;;;;;;;;;;23.70;86.70;;;;;;4938937;29;19911;-77
2023/09/21 08:46:44;;;;;;;;;;;24.10;85.80;;;;;;4956258;29;19913;-79
2023/09/21 08:49:09;;;;;;;;;;;24.30;85.00;;;;;;4947560;29;20093;-78
2023/09/21 08:51:37;;;;;;;;;;;24.60;84.30;;;;;;4919827;29;19911;-78
2023/09/21 08:54:06;;;;;;;;;;;24.80;83.80;;;;;;4916141;29;19907;-78
2023/09/21 08:56:33;;;;;;;;;;;25.20;82.10;;;;;;4903070;29;19961;-78
2023/09/21 08:59:00;;;;;;;;;;;25.30;81.10;;;;;;4928311;29;20197;-77
2023/09/21 09:01:27;;;;;;;;;;;25.50;81.00;;;;;;4925673;29;19914;-77
2023/09/21 09:03:53;;;;;;;;;;;25.80;80.00;;;;;;4944157;29;19911;-77
2023/09/21 09:06:19;;;;;;;;;;;25.90;79.30;;;;;;4924984;29;19913;-79
2023/09/21 09:08:45;;;;;;;;;;;26.10;78.70;;;;;;4931240;29;20440;-76
2023/09/21 09:11:31;;;;;;;;;;;26.20;78.10;;;;;;4932455;29;19978;-78
2023/09/21 09:13:56;;;;;;;;;;;26.30;78.10;;;;;;4936338;29;19961;-76
2023/09/21 09:16:28;;;;;;;;;;;26.50;78.10;;;;;;4928934;29;19911;-76
2023/09/21 09:18:55;;;;;;;;;;;26.60;77.70;;;;;;4920191;29;20192;-76
2023/09/21 09:21:21;;;;;;;;;;;26.70;76.70;;;;;;4938739;29;19978;-78
2023/09/21 09:23:47;;;;;;;;;;;26.90;75.80;;;;;;4928013;29;19915;-77
2023/09/21 09:26:13;;;;;;;;;;;27.00;76.00;;;;;;4940861;29;20107;-77
2023/09/21 09:28:38;;;;;;;;;;;27.10;76.00;;;;;;4937692;29;19907;-76
2023/09/21 09:31:10;;;;;;;;;;;27.20;75.70;;;;;;4935073;29;20050;-76
2023/09/21 09:33:40;;;;;;;;;;;27.40;75.10;;;;;;4911443;29;19902;-77
2023/09/21 09:36:06;;;;;;;;;;;27.70;74.70;;;;;;4919661;29;19955;-77
2023/09/21 09:38:32;;;;;;;;;;;27.60;73.90;;;;;;4932017;29;20008;-75
2023/09/21 09:41:00;;;;;;;;;;;27.80;73.20;;;;;;4935825;29;19903;-76
2023/09/21 09:43:27;;;;;;;;;;;28.10;71.90;;;;;;4935656;29;19915;-75
2023/09/21 09:45:53;;;;;;;;;;;28.40;71.20;;;;;;4911242;29;19994;-77
2023/09/21 09:48:19;;;;;;;;;;;28.60;70.80;;;;;;4909424;29;19911;-76
2023/09/21 09:50:50;;;;;;;;;;;28.70;70.40;;;;;;4948980;29;19933;-76
2023/09/21 09:53:17;;;;;;;;;;;29.00;70.20;;;;;;4927863;29;20196;-78
2023/09/21 09:55:44;;;;;;;;;;;29.00;69.40;;;;;;4926252;29;20188;-77
2023/09/21 09:58:10;;;;;;;;;;;28.90;69.90;;;;;;4943245;29;19906;-77
2023/09/21 10:00:37;;;;;;;;;;;28.90;69.70;;;;;;4914077;29;19915;-77
2023/09/21 10:03:04;;;;;;;;;;;28.90;69.60;;;;;;4901334;29;20023;-77
2023/09/21 10:05:30;;;;;;;;;;;28.90;69.60;;;;;;4903216;29;19911;-77
2023/09/21 10:08:03;;;;;;;;;;;28.80;69.10;;;;;;4894861;29;19978;-78
2023/09/21 10:10:33;;;;;;;;;;;28.70;69.30;;;;;;4910219;29;19911;-77
2023/09/21 10:12:59;;;;;;;;;;;28.70;69.10;;;;;;4937347;29;19906;-78
2023/09/21 10:15:24;;;;;;;;;;;28.80;68.80;;;;;;4925233;29;20077;-78
2023/09/21 10:17:54;;;;;;;;;;;28.70;68.20;;;;;;4940824;29;20264;-78
2023/09/21 10:20:27;;;;;;;;;;;28.60;68.40;;;;;;4919296;29;19911;-76
2023/09/21 10:22:53;;;;;;;;;;;28.60;68.70;;;;;;4917791;29;19915;-77
2023/09/21 10:25:38;;;;;;;;;;;28.60;68.50;;;;;;4935147;29;20281;-77
2023/09/21 10:28:27;;;;;;;;;;;28.40;68.30;;;;;;4931979;29;20092;-77
2023/09/21 10:30:53;;;;;;;;;;;28.40;67.90;;;;;;4940396;29;19906;-76
2023/09/21 10:33:19;;;;;;;;;;;28.60;67.50;;;;;;4945760;29;19907;-75
2023/09/21 10:35:45;;;;;;;;;;;28.70;66.50;;;;;;4937271;29;19914;-76
2023/09/21 10:38:14;;;;;;;;;;;28.70;65.70;;;;;;4935113;29;19910;-76
2023/09/21 10:40:40;;;;;;;;;;;28.60;66.10;;;;;;4893753;29;19963;-76
2023/09/21 10:43:25;;;;;;;;;;;29.00;66.00;;;;;;4934100;29;19911;-76
2023/09/21 10:45:55;;;;;;;;;;;29.40;65.20;;;;;;4925617;29;19992;-77
2023/09/21 10:48:21;;;;;;;;;;;29.40;65.00;;;;;;4945513;29;19954;-75
2023/09/21 10:50:50;;;;;;;;;;;29.80;64.50;;;;;;4935468;29;20125;-77
2023/09/21 10:53:17;;;;;;;;;;;30.20;63.50;;;;;;4938011;29;19969;-78
2023/09/21 10:55:43;;;;;;;;;;;30.50;62.30;;;;;;4927613;29;19906;-78
2023/09/21 10:58:10;;;;;;;;;;;30.10;62.20;;;;;;4936899;29;20177;-76
2023/09/21 11:00:37;;;;;;;;;;;30.40;61.70;;;;;;4927521;29;19907;-77
2023/09/21 11:03:03;;;;;;;;;;;30.70;61.50;;;;;;4913828;29;19923;-77
2023/09/21 11:05:29;;;;;;;;;;;31.00;61.10;;;;;;4913427;29;20240;-76
2023/09/21 11:07:55;;;;;;;;;;;31.20;60.20;;;;;;4940362;29;19930;-78
2023/09/21 11:10:20;;;;;;;;;;;31.10;60.20;;;;;;4920568;29;19907;-76
2023/09/21 11:12:48;;;;;;;;;;;31.40;59.70;;;;;;4929999;29;19910;-75
2023/09/21 11:15:16;;;;;;;;;;;31.60;58.90;;;;;;4911806;29;19925;-76
2023/09/21 11:17:42;;;;;;;;;;;31.60;59.10;;;;;;4934952;29;19950;-76
2023/09/21 11:20:09;;;;;;;;;;;32.30;58.80;;;;;;4930735;29;19910;-75
2023/09/21 11:22:34;;;;;;;;;;;33.30;57.40;;;;;;4909450;29;19921;-78
2023/09/21 11:25:00;;;;;;;;;;;34.10;56.30;;;;;;4933140;29;20109;-76
2023/09/21 11:27:26;;;;;;;;;;;34.20;56.30;;;;;;4921279;29;19911;-76
2023/09/21 11:29:53;;;;;;;;;;;34.80;55.10;;;;;;4931912;29;20286;-77
2023/09/21 11:32:19;;;;;;;;;;;34.80;55.20;;;;;;4939734;29;19907;-77
2023/09/21 11:34:45;;;;;;;;;;;34.20;55.00;;;;;;4930956;29;19903;-76
2023/09/21 11:37:12;;;;;;;;;;;33.70;55.80;;;;;;4922409;29;19950;-76
2023/09/21 11:39:48;;;;;;;;;;;33.00;56.20;;;;;;4933692;29;19914;-76
2023/09/21 11:42:17;;;;;;;;;;;32.40;57.00;;;;;;4940751;29;19907;-76
2023/09/21 11:44:43;;;;;;;;;;;31.90;58.00;;;;;;4935190;29;19915;-76
2023/09/21 11:47:09;;;;;;;;;;;31.70;58.70;;;;;;4925554;29;19978;-76
2023/09/21 11:49:38;;;;;;;;;;;31.80;58.90;;;;;;4937497;29;19907;-77
2023/09/21 11:52:04;;;;;;;;;;;31.40;58.60;;;;;;4929854;29;19911;-76
2023/09/21 11:54:34;;;;;;;;;;;31.10;59.20;;;;;;4938574;29;19959;-77
2023/09/21 11:57:00;;;;;;;;;;;31.10;59.80;;;;;;4935082;29;19981;-77
2023/09/21 11:59:26;;;;;;;;;;;31.40;59.20;;;;;;4939668;29;19907;-75
2023/09/21 12:01:51;;;;;;;;;;;31.20;59.30;;;;;;4937210;29;19917;-76
2023/09/21 12:04:17;;;;;;;;;;;31.30;59.60;;;;;;4925352;29;19915;-75
2023/09/21 12:06:45;;;;;;;;;;;31.30;58.70;;;;;;4931882;29;20205;-75
2023/09/21 12:09:13;;;;;;;;;;;31.60;58.70;;;;;;4939229;29;19903;-75
2023/09/21 12:11:42;;;;;;;;;;;31.70;58.10;;;;;;4935721;29;19906;-76
2023/09/21 12:14:12;;;;;;;;;;;31.90;58.10;;;;;;4940185;29;19913;-75
2023/09/21 12:16:38;;;;;;;;;;;31.80;58.20;;;;;;4944058;29;19910;-75
2023/09/21 12:19:08;;;;;;;;;;;32.30;58.60;;;;;;4930083;29;19907;-75
2023/09/21 12:21:34;;;;;;;;;;;33.40;57.30;;;;;;4932896;29;19913;-76
2023/09/21 12:24:03;;;;;;;;;;;34.10;55.60;;;;;;4932485;29;19915;-75
2023/09/21 12:26:29;;;;;;;;;;;34.50;55.50;;;;;;4937884;29;19915;-75
2023/09/21 12:28:54;;;;;;;;;;;34.90;54.70;;;;;;4935519;29;19974;-77
2023/09/21 12:31:22;;;;;;;;;;;35.40;54.30;;;;;;4920839;29;19911;-77
2023/09/21 12:33:48;;;;;;;;;;;35.40;53.60;;;;;;4936696;29;19957;-76
2023/09/21 12:36:13;;;;;;;;;;;35.60;53.30;;;;;;4941514;29;19907;-78
2023/09/21 12:38:40;;;;;;;;;;;35.90;53.10;;;;;;4939799;29;20272;-75
2023/09/21 12:41:07;;;;;;;;;;;37.90;51.80;;;;;;4938987;29;19974;-75
2023/09/21 12:43:32;;;;;;;;;;;38.60;50.70;;;;;;4945750;29;19998;-74
2023/09/21 12:45:59;;;;;;;;;;;38.30;50.20;;;;;;4930487;29;19919;-77
2023/09/21 12:48:25;;;;;;;;;;;38.00;50.30;;;;;;4946150;29;19914;-76
2023/09/21 12:50:51;;;;;;;;;;;38.20;50.80;;;;;;4941594;29;19913;-77
2023/09/21 12:53:17;;;;;;;;;;;38.10;50.70;;;;;;4920362;29;19903;-77
2023/09/21 12:55:44;;;;;;;;;;;38.10;50.00;;;;;;4946475;29;19966;-76
2023/09/21 12:58:11;;;;;;;;;;;38.00;50.60;;;;;;4942382;29;19970;-77
2023/09/21 13:00:38;;;;;;;;;;;37.80;50.90;;;;;;4920000;29;19913;-77
2023/09/21 13:03:04;;;;;;;;;;;37.20;50.70;;;;;;4895917;29;19922;-75
2023/09/21 13:05:30;;;;;;;;;;;37.00;51.10;;;;;;4932630;29;19907;-76
2023/09/21 13:07:56;;;;;;;;;;;36.80;51.50;;;;;;4938070;29;20240;-76
2023/09/21 13:10:21;;;;;;;;;;;36.90;51.50;;;;;;4919678;29;19913;-77
2023/09/21 13:12:47;;;;;;;;;;;37.20;50.90;;;;;;4939034;29;19906;-77
2023/09/21 13:15:14;;;;;;;;;;;37.30;50.70;;;;;;4941461;29;19902;-76
2023/09/21 13:17:40;;;;;;;;;;;38.00;50.40;;;;;;4927425;29;19911;-78
2023/09/21 13:20:16;;;;;;;;;;;39.30;49.30;;;;;;4911796;29;19954;-76
2023/09/21 13:22:42;;;;;;;;;;;41.00;48.40;;;;;;4940891;29;19907;-76
2023/09/21 13:25:08;;;;;;;;;;;41.50;47.10;;;;;;4939151;29;20215;-76
2023/09/21 13:27:39;;;;;;;;;;;40.90;47.00;;;;;;4924311;29;19977;-77
2023/09/21 13:30:11;;;;;;;;;;;40.80;47.20;;;;;;4921192;29;19914;-75
2023/09/21 13:32:40;;;;;;;;;;;39.50;47.70;;;;;;4921287;29;19907;-77
2023/09/21 13:35:06;;;;;;;;;;;38.50;49.60;;;;;;4926210;29;19907;-76
2023/09/21 13:37:32;;;;;;;;;;;38.10;49.80;;;;;;4935880;29;19934;-77
2023/09/21 13:39:58;;;;;;;;;;;39.50;48.40;;;;;;4932134;29;19903;-78
2023/09/21 13:42:24;;;;;;;;;;;40.40;47.60;;;;;;4937779;29;19964;-78
2023/09/21 13:44:53;;;;;;;;;;;40.20;47.60;;;;;;4929984;29;19942;-78
2023/09/21 13:47:18;;;;;;;;;;;39.80;47.60;;;;;;4936110;29;19922;-79
2023/09/21 13:49:44;;;;;;;;;;;39.40;48.00;;;;;;4907699;29;19907;-77
2023/09/21 13:52:10;;;;;;;;;;;40.50;47.70;;;;;;4944611;29;19931;-79
2023/09/21 13:54:36;;;;;;;;;;;41.50;46.50;;;;;;4939750;29;19934;-77
2023/09/21 13:57:02;;;;;;;;;;;43.50;45.60;;;;;;4940763;29;19930;-76
2023/09/21 13:59:28;;;;;;;;;;;45.30;44.10;;;;;;4918047;29;19907;-77
2023/09/21 14:01:54;;;;;;;;;;;46.60;43.50;;;;;;4915482;29;19966;-78
2023/09/21 14:04:21;;;;;;;;;;;46.20;42.70;;;;;;4933677;29;19953;-77
2023/09/21 14:06:47;;;;;;;;;;;44.90;43.40;;;;;;4915700;29;20092;-77
2023/09/21 14:09:13;;;;;;;;;;;45.00;43.60;;;;;;4941969;29;19909;-78
2023/09/21 14:11:39;;;;;;;;;;;43.80;43.60;;;;;;4948235;29;19895;-76
2023/09/21 14:14:05;;;;;;;;;;;42.60;44.60;;;;;;4926444;29;19918;-76
2023/09/21 14:16:34;;;;;;;;;;;42.30;45.60;;;;;;4950978;29;19903;-77
2023/09/21 14:18:59;;;;;;;;;;;41.80;45.00;;;;;;4941593;29;19897;-78
2023/09/21 14:21:26;;;;;;;;;;;41.10;46.70;;;;;;4931151;29;20026;-79
2023/09/21 14:23:51;;;;;;;;;;;39.90;46.20;;;;;;4937218;29;19910;-78
2023/09/21 14:26:17;;;;;;;;;;;38.80;47.10;;;;;;4937908;29;19913;-76
2023/09/21 14:28:43;;;;;;;;;;;38.60;48.30;;;;;;4920818;29;20003;-76
2023/09/21 14:31:08;;;;;;;;;;;38.70;48.40;;;;;;4930255;29;19910;-76
2023/09/21 14:33:34;;;;;;;;;;;38.30;48.10;;;;;;4934120;29;19910;-76
2023/09/21 14:35:59;;;;;;;;;;;37.10;48.50;;;;;;4928194;29;20097;-77
2023/09/21 14:38:25;;;;;;;;;;;35.90;50.50;;;;;;4930913;29;19922;-75
2023/09/21 14:40:51;;;;;;;;;;;35.50;50.90;;;;;;4927207;29;19907;-78
2023/09/21 14:43:16;;;;;;;;;;;35.50;51.30;;;;;;4937063;29;19954;-75
2023/09/21 14:45:42;;;;;;;;;;;35.10;51.30;;;;;;4938475;29;19938;-76
2023/09/21 14:48:08;;;;;;;;;;;34.60;53.50;;;;;;4931232;29;19986;-75
2023/09/21 14:50:34;;;;;;;;;;;34.60;53.10;;;;;;4936003;29;20089;-76
2023/09/21 14:53:00;;;;;;;;;;;34.40;53.50;;;;;;4939913;29;19942;-77
2023/09/21 14:55:25;;;;;;;;;;;34.40;53.40;;;;;;4928544;29;19915;-76
2023/09/21 14:57:51;;;;;;;;;;;34.00;53.50;;;;;;4909953;29;20154;-77
2023/09/21 15:00:19;;;;;;;;;;;33.70;54.80;;;;;;4913122;29;20134;-76
2023/09/21 15:02:53;;;;;;;;;;;33.50;55.30;;;;;;4925825;29;19954;-77
2023/09/21 15:05:19;;;;;;;;;;;33.30;55.10;;;;;;4921988;29;20000;-75
2023/09/21 15:07:45;;;;;;;;;;;33.10;55.40;;;;;;4943755;29;20201;-78
2023/09/21 15:10:11;;;;;;;;;;;32.80;55.60;;;;;;4919724;29;20245;-76
2023/09/21 15:12:37;;;;;;;;;;;32.30;55.80;;;;;;4939130;29;19981;-78
2023/09/21 15:15:04;;;;;;;;;;;31.80;57.20;;;;;;4916709;29;19986;-77
2023/09/21 15:17:30;;;;;;;;;;;31.60;57.50;;;;;;4940378;29;19907;-77
2023/09/21 15:19:56;;;;;;;;;;;31.40;57.40;;;;;;4932941;29;20204;-75
2023/09/21 15:22:22;;;;;;;;;;;31.40;58.70;;;;;;4927433;29;19918;-75
2023/09/21 15:24:51;;;;;;;;;;;31.30;58.40;;;;;;4929450;29;19932;-76
2023/09/21 15:27:17;;;;;;;;;;;31.20;58.20;;;;;;4927074;29;19903;-77
2023/09/21 15:29:46;;;;;;;;;;;31.10;58.40;;;;;;4924987;29;19907;-75
2023/09/21 15:32:15;;;;;;;;;;;31.00;58.60;;;;;;4927007;29;19913;-76
2023/09/21 15:34:41;;;;;;;;;;;30.90;59.30;;;;;;4925845;29;19910;-76
2023/09/21 15:37:08;;;;;;;;;;;30.80;59.00;;;;;;4934265;29;19995;-77
2023/09/21 15:39:34;;;;;;;;;;;30.70;59.00;;;;;;4937884;29;20193;-78
2023/09/21 15:42:00;;;;;;;;;;;30.50;59.50;;;;;;4929137;29;19909;-77
2023/09/21 15:44:26;;;;;;;;;;;30.30;59.20;;;;;;4916189;29;19915;-77
2023/09/21 15:46:52;;;;;;;;;;;29.90;59.10;;;;;;4939993;29;19918;-77
2023/09/21 15:49:17;;;;;;;;;;;29.60;60.20;;;;;;4920598;29;19907;-75
2023/09/21 15:51:43;;;;;;;;;;;29.50;60.50;;;;;;4909453;29;19914;-75
2023/09/21 15:54:09;;;;;;;;;;;29.30;60.20;;;;;;4945006;29;19929;-78
2023/09/21 15:56:34;;;;;;;;;;;28.90;60.80;;;;;;4925810;29;19965;-78
2023/09/21 15:59:00;;;;;;;;;;;28.70;61.10;;;;;;4910192;29;19907;-76
2023/09/21 16:01:26;;;;;;;;;;;28.50;61.90;;;;;;4927690;29;19907;-76
2023/09/21 16:03:53;;;;;;;;;;;28.40;62.30;;;;;;4931064;29;19917;-76
2023/09/21 16:06:26;;;;;;;;;;;28.40;62.40;;;;;;4912999;29;19907;-74
2023/09/21 16:08:52;;;;;;;;;;;28.30;62.50;;;;;;4927743;29;20095;-77
2023/09/21 16:11:17;;;;;;;;;;;28.20;62.70;;;;;;4938201;29;19946;-75
2023/09/21 16:13:46;;;;;;;;;;;28.20;63.00;;;;;;4938865;29;19907;-75
2023/09/21 16:16:11;;;;;;;;;;;28.10;63.50;;;;;;4947341;29;19941;-77
2023/09/21 16:18:37;;;;;;;;;;;28.00;63.30;;;;;;4948273;29;19902;-75
2023/09/21 16:21:03;;;;;;;;;;;27.90;65.60;;;;;;4911906;29;19907;-74
2023/09/21 16:23:29;;;;;;;;;;;27.90;68.20;;;;;;4932676;29;19926;-75
2023/09/21 16:26:01;;;;;;;;;;;27.80;66.60;;;;;;4928895;29;19907;-77
2023/09/21 16:28:30;;;;;;;;;;;27.70;66.70;;;;;;4930032;29;19919;-78
2023/09/21 16:30:57;;;;;;;;;;;27.60;69.00;;;;;;4950599;29;19907;-77
2023/09/21 16:33:29;;;;;;;;;;;27.50;69.30;;;;;;4922356;29;20216;-77
2023/09/21 16:35:55;;;;;;;;;;;27.40;70.80;;;;;;4947846;29;20192;-76
2023/09/21 16:38:21;;;;;;;;;;;27.20;71.80;;;;;;4921829;29;19950;-76
2023/09/21 16:40:50;;;;;;;;;;;27.00;72.10;;;;;;4932531;29;19903;-76
2023/09/21 16:43:16;;;;;;;;;;;26.90;73.50;;;;;;4945170;29;19953;-76
2023/09/21 16:45:42;;;;;;;;;;;26.70;72.70;;;;;;4933494;29;19907;-76
2023/09/21 16:48:08;;;;;;;;;;;26.60;73.90;;;;;;4906509;29;19917;-74
2023/09/21 16:50:34;;;;;;;;;;;26.30;74.10;;;;;;4930965;29;19914;-75
2023/09/21 16:53:00;;;;;;;;;;;26.20;74.80;;;;;;4941611;29;19911;-75
2023/09/21 16:55:26;;;;;;;;;;;26.10;75.00;;;;;;4941734;29;19903;-75
2023/09/21 16:57:52;;;;;;;;;;;26.00;76.30;;;;;;4936100;29;19948;-75
2023/09/21 17:00:18;;;;;;;;;;;25.80;74.30;;;;;;4937255;29;19907;-75
2023/09/21 17:02:44;;;;;;;;;;;25.80;73.30;;;;;;4943849;29;19903;-75
2023/09/21 17:05:09;;;;;;;;;;;25.80;74.00;;;;;;4930849;29;20227;-75
2023/09/21 17:07:35;;;;;;;;;;;25.80;72.40;;;;;;4944847;29;19913;-75
2023/09/21 17:10:01;;;;;;;;;;;25.70;71.80;;;;;;4933365;29;20260;-77
2023/09/21 17:12:28;;;;;;;;;;;25.60;71.80;;;;;;4930637;29;19938;-76
2023/09/21 17:14:54;;;;;;;;;;;25.50;72.40;;;;;;4928494;29;19907;-77
2023/09/21 17:17:21;;;;;;;;;;;25.40;72.90;;;;;;4938323;29;20130;-75
2023/09/21 17:19:53;;;;;;;;;;;25.30;70.50;;;;;;4929921;29;19906;-76
2023/09/21 17:22:28;;;;;;;;;;;25.30;69.00;;;;;;4939717;29;19907;-76
2023/09/21 17:24:55;;;;;;;;;;;25.20;68.20;;;;;;4935995;29;19911;-76
2023/09/21 17:27:22;;;;;;;;;;;25.20;67.30;;;;;;4923262;29;19910;-76
2023/09/21 17:29:47;;;;;;;;;;;25.10;67.60;;;;;;4937092;29;19903;-77
2023/09/21 17:32:13;;;;;;;;;;;25.10;67.00;;;;;;4933005;29;19907;-78
2023/09/21 17:34:39;;;;;;;;;;;25.10;66.90;;;;;;4938108;29;19907;-78
2023/09/21 17:37:08;;;;;;;;;;;25.10;66.60;;;;;;4942931;29;19935;-80
2023/09/21 17:39:35;;;;;;;;;;;25.10;66.30;;;;;;4940947;29;19919;-80
2023/09/21 17:42:02;;;;;;;;;;;25.20;66.30;;;;;;4920138;29;20207;-77
2023/09/21 17:44:30;;;;;;;;;;;25.20;66.50;;;;;;4913898;29;19970;-77
2023/09/21 17:46:56;;;;;;;;;;;25.10;66.80;;;;;;4931902;29;19923;-77
2023/09/21 17:49:21;;;;;;;;;;;25.10;67.60;;;;;;4910732;29;19914;-79
2023/09/21 17:52:14;;;;;;;;;;;25.10;69.90;;;;;;4917884;29;19902;-78
2023/09/21 17:54:40;;;;;;;;;;;24.90;71.00;;;;;;4924994;29;19915;-79
2023/09/21 17:57:06;;;;;;;;;;;24.80;72.30;;;;;;4927364;29;20238;-78
2023/09/21 17:59:32;;;;;;;;;;;24.70;72.80;;;;;;4933847;29;19910;-78
2023/09/21 18:02:00;;;;;;;;;;;24.70;73.10;;;;;;4934075;29;20104;-79
2023/09/21 18:04:26;;;;;;;;;;;24.60;73.00;;;;;;4904651;29;20104;-78
2023/09/21 18:06:55;;;;;;;;;;;24.50;73.10;;;;;;4929160;29;19903;-78
2023/09/21 18:09:28;;;;;;;;;;;24.60;73.10;;;;;;4918853;29;19991;-78
2023/09/21 18:12:00;;;;;;;;;;;24.50;72.80;;;;;;4907101;29;19922;-79
2023/09/21 18:14:25;;;;;;;;;;;24.40;72.40;;;;;;4899258;29;19907;-77
2023/09/21 18:16:51;;;;;;;;;;;24.30;72.50;;;;;;4908496;29;19958;-77
2023/09/21 18:19:17;;;;;;;;;;;24.20;73.20;;;;;;4913325;29;19906;-79
2023/09/21 18:21:43;;;;;;;;;;;24.10;73.70;;;;;;4910194;29;20097;-77
2023/09/21 18:24:12;;;;;;;;;;;24.10;73.80;;;;;;4899537;29;19973;-77
2023/09/21 18:26:38;;;;;;;;;;;24.10;74.10;;;;;;4910331;29;19922;-79
2023/09/21 18:29:08;;;;;;;;;;;24.10;74.20;;;;;;4898653;29;19930;-77
2023/09/21 18:31:41;;;;;;;;;;;24.20;74.40;;;;;;4904477;29;19906;-78